sensor_id;sensor_type;location;lat;lon;timestamp;temperature;humidity
16289;DHT22;26089;43.538;5.250;2023-05-10T00:00:46;15.00;99.90
16289;DHT22;26089;43.538;5.250;2023-05-10T00:03:13;14.90;99.90
16289;DHT22;26089;43.538;5.250;2023-05-10T00:05:42;14.90;99.90
16289;DHT22;26089;43.538;5.250;2023-05-10T00:08:09;14.80;99.90
16289;DHT22;26089;43.538;5.250;2023-05-10T00:10:36;14.80;99.90
16289;DHT22;26089;43.538;5.250;2023-05-10T00:13:03;14.80;99.90
16289;DHT22;26089;43.538;5.250;2023-05-10T00:15:30;14.80;99.90
16289;DHT22;26089;43.538;5.250;2023-05-10T00:17:57;14.80;99.90
16289;DHT22;26089;43.538;5.250;2023-05-10T00:20:24;14.80;99.90
16289;DHT22;26089;43.538;5.250;2023-05-10T00:22:53;14.70;99.90
16289;DHT22;26089;43.538;5.250;2023-05-10T00:25:20;14.80;99.90
16289;DHT22;26089;43.538;5.250;2023-05-10T00:27:47;14.80;99.90
16289;DHT22;26089;43.538;5.250;2023-05-10T00:30:15;14.80;99.90
16289;DHT22;26089;43.538;5.250;2023-05-10T00:32:42;14.80;99.90
16289;DHT22;26089;43.538;5.250;2023-05-10T00:35:09;14.80;99.90
16289;DHT22;26089;43.538;5.250;2023-05-10T00:37:36;14.90;99.90
16289;DHT22;26089;43.538;5.250;2023-05-10T00:40:06;14.90;99.90
16289;DHT22;26089;43.538;5.250;2023-05-10T00:42:33;14.90;99.90
16289;DHT22;26089;43.538;5.250;2023-05-10T00:45:00;14.90;99.90
16289;DHT22;26089;43.538;5.250;2023-05-10T00:47:27;14.90;99.90
16289;DHT22;26089;43.538;5.250;2023-05-10T00:49:54;15.00;99.90
16289;DHT22;26089;43.538;5.250;2023-05-10T00:52:22;15.00;99.90
16289;DHT22;26089;43.538;5.250;2023-05-10T00:54:50;15.10;99.90
16289;DHT22;26089;43.538;5.250;2023-05-10T00:57:19;15.10;99.90
16289;DHT22;26089;43.538;5.250;2023-05-10T00:59:48;15.00;99.90
16289;DHT22;26089;43.538;5.250;2023-05-10T01:02:15;15.00;99.90
16289;DHT22;26089;43.538;5.250;2023-05-10T01:04:43;14.90;99.90
16289;DHT22;26089;43.538;5.250;2023-05-10T01:07:10;14.80;99.90
16289;DHT22;26089;43.538;5.250;2023-05-10T01:09:37;14.70;99.90
16289;DHT22;26089;43.538;5.250;2023-05-10T01:12:05;14.70;99.90
16289;DHT22;26089;43.538;5.250;2023-05-10T01:14:34;14.70;99.90
16289;DHT22;26089;43.538;5.250;2023-05-10T01:17:03;14.60;99.90
16289;DHT22;26089;43.538;5.250;2023-05-10T01:19:32;14.60;99.90
16289;DHT22;26089;43.538;5.250;2023-05-10T01:22:10;14.50;99.90
16289;DHT22;26089;43.538;5.250;2023-05-10T01:27:57;14.60;99.90
16289;DHT22;26089;43.538;5.250;2023-05-10T01:31:11;14.60;99.90
16289;DHT22;26089;43.538;5.250;2023-05-10T01:33:48;14.50;99.90
16289;DHT22;26089;43.538;5.250;2023-05-10T01:36:24;14.50;99.90
16289;DHT22;26089;43.538;5.250;2023-05-10T01:38:58;14.40;99.90
16289;DHT22;26089;43.538;5.250;2023-05-10T01:41:32;14.50;99.90
16289;DHT22;26089;43.538;5.250;2023-05-10T01:44:11;14.50;99.90
16289;DHT22;26089;43.538;5.250;2023-05-10T01:46:40;14.50;99.90
16289;DHT22;26089;43.538;5.250;2023-05-10T01:49:10;14.50;99.90
16289;DHT22;26089;43.538;5.250;2023-05-10T01:51:43;14.50;99.90
16289;DHT22;26089;43.538;5.250;2023-05-10T01:54:13;14.50;99.90
16289;DHT22;26089;43.538;5.250;2023-05-10T01:56:41;14.40;99.90
16289;DHT22;26089;43.538;5.250;2023-05-10T01:59:13;14.30;99.90
16289;DHT22;26089;43.538;5.250;2023-05-10T02:01:43;14.30;99.90
16289;DHT22;26089;43.538;5.250;2023-05-10T02:04:15;14.40;99.90
16289;DHT22;26089;43.538;5.250;2023-05-10T02:06:43;14.30;99.90
16289;DHT22;26089;43.538;5.250;2023-05-10T02:09:12;14.30;99.90
16289;DHT22;26089;43.538;5.250;2023-05-10T02:11:41;14.30;99.90
16289;DHT22;26089;43.538;5.250;2023-05-10T02:14:10;14.20;99.90
16289;DHT22;26089;43.538;5.250;2023-05-10T02:16:39;14.20;99.90
16289;DHT22;26089;43.538;5.250;2023-05-10T02:19:07;14.10;99.90
16289;DHT22;26089;43.538;5.250;2023-05-10T02:21:38;14.10;99.90
16289;DHT22;26089;43.538;5.250;2023-05-10T02:24:06;14.10;99.90
16289;DHT22;26089;43.538;5.250;2023-05-10T02:26:35;14.10;99.90
16289;DHT22;26089;43.538;5.250;2023-05-10T02:29:03;14.10;99.90
16289;DHT22;26089;43.538;5.250;2023-05-10T02:31:33;14.00;99.90
16289;DHT22;26089;43.538;5.250;2023-05-10T02:34:00;14.00;99.90
16289;DHT22;26089;43.538;5.250;2023-05-10T02:36:28;14.00;99.90
16289;DHT22;26089;43.538;5.250;2023-05-10T02:38:59;14.00;99.90
16289;DHT22;26089;43.538;5.250;2023-05-10T02:41:28;14.00;99.90
16289;DHT22;26089;43.538;5.250;2023-05-10T02:43:59;14.00;99.90
16289;DHT22;26089;43.538;5.250;2023-05-10T02:46:26;14.00;99.90
16289;DHT22;26089;43.538;5.250;2023-05-10T02:48:53;14.10;99.90
16289;DHT22;26089;43.538;5.250;2023-05-10T02:51:23;14.10;99.90
16289;DHT22;26089;43.538;5.250;2023-05-10T02:53:51;14.10;99.90
16289;DHT22;26089;43.538;5.250;2023-05-10T02:56:31;14.10;99.90
16289;DHT22;26089;43.538;5.250;2023-05-10T02:58:58;14.20;99.90
16289;DHT22;26089;43.538;5.250;2023-05-10T03:01:25;14.20;99.90
16289;DHT22;26089;43.538;5.250;2023-05-10T03:03:52;14.20;99.90
16289;DHT22;26089;43.538;5.250;2023-05-10T03:06:19;14.20;99.90
16289;DHT22;26089;43.538;5.250;2023-05-10T03:08:46;14.30;99.90
16289;DHT22;26089;43.538;5.250;2023-05-10T03:11:27;14.30;99.90
16289;DHT22;26089;43.538;5.250;2023-05-10T03:14:07;14.20;99.90
16289;DHT22;26089;43.538;5.250;2023-05-10T03:16:41;14.20;99.90
16289;DHT22;26089;43.538;5.250;2023-05-10T03:19:16;14.20;99.90
16289;DHT22;26089;43.538;5.250;2023-05-10T03:21:49;14.30;99.90
16289;DHT22;26089;43.538;5.250;2023-05-10T03:24:21;14.30;99.90
16289;DHT22;26089;43.538;5.250;2023-05-10T03:26:50;14.40;99.90
16289;DHT22;26089;43.538;5.250;2023-05-10T03:29:19;14.30;99.90
16289;DHT22;26089;43.538;5.250;2023-05-10T03:31:46;14.40;99.90
16289;DHT22;26089;43.538;5.250;2023-05-10T03:34:13;14.40;99.90
16289;DHT22;26089;43.538;5.250;2023-05-10T03:36:41;14.40;99.90
16289;DHT22;26089;43.538;5.250;2023-05-10T03:39:08;14.50;99.90
16289;DHT22;26089;43.538;5.250;2023-05-10T03:41:36;14.50;99.90
16289;DHT22;26089;43.538;5.250;2023-05-10T03:44:04;14.50;99.90
16289;DHT22;26089;43.538;5.250;2023-05-10T03:46:31;14.50;99.90
16289;DHT22;26089;43.538;5.250;2023-05-10T03:48:58;14.50;99.90
16289;DHT22;26089;43.538;5.250;2023-05-10T03:51:25;14.50;99.90
16289;DHT22;26089;43.538;5.250;2023-05-10T03:53:53;14.50;99.90
16289;DHT22;26089;43.538;5.250;2023-05-10T03:56:21;14.50;99.90
16289;DHT22;26089;43.538;5.250;2023-05-10T03:58:48;14.50;99.90
16289;DHT22;26089;43.538;5.250;2023-05-10T04:01:16;14.50;99.90
16289;DHT22;26089;43.538;5.250;2023-05-10T04:03:43;14.50;99.90
16289;DHT22;26089;43.538;5.250;2023-05-10T04:06:10;14.40;99.90
16289;DHT22;26089;43.538;5.250;2023-05-10T04:08:38;14.30;99.90
16289;DHT22;26089;43.538;5.250;2023-05-10T04:11:06;14.30;99.90
16289;DHT22;26089;43.538;5.250;2023-05-10T04:13:34;14.30;99.90
16289;DHT22;26089;43.538;5.250;2023-05-10T04:16:01;14.30;99.90
16289;DHT22;26089;43.538;5.250;2023-05-10T04:18:29;14.20;99.90
16289;DHT22;26089;43.538;5.250;2023-05-10T04:20:56;14.20;99.90
16289;DHT22;26089;43.538;5.250;2023-05-10T04:23:23;14.20;99.90
16289;DHT22;26089;43.538;5.250;2023-05-10T04:25:50;14.20;99.90
16289;DHT22;26089;43.538;5.250;2023-05-10T04:28:17;14.20;99.90
16289;DHT22;26089;43.538;5.250;2023-05-10T04:30:44;14.10;99.90
16289;DHT22;26089;43.538;5.250;2023-05-10T04:33:11;14.00;99.90
16289;DHT22;26089;43.538;5.250;2023-05-10T04:35:39;13.90;99.90
16289;DHT22;26089;43.538;5.250;2023-05-10T04:38:06;13.90;99.90
16289;DHT22;26089;43.538;5.250;2023-05-10T04:40:33;13.90;99.90
16289;DHT22;26089;43.538;5.250;2023-05-10T04:43:01;13.90;99.90
16289;DHT22;26089;43.538;5.250;2023-05-10T04:45:28;13.90;99.90
16289;DHT22;26089;43.538;5.250;2023-05-10T04:47:55;13.90;99.90
16289;DHT22;26089;43.538;5.250;2023-05-10T04:50:22;13.90;99.90
16289;DHT22;26089;43.538;5.250;2023-05-10T04:52:50;13.90;99.90
16289;DHT22;26089;43.538;5.250;2023-05-10T04:55:17;13.90;99.90
16289;DHT22;26089;43.538;5.250;2023-05-10T04:57:44;13.90;99.90
16289;DHT22;26089;43.538;5.250;2023-05-10T05:00:12;13.80;99.90
16289;DHT22;26089;43.538;5.250;2023-05-10T05:02:42;13.80;99.90
16289;DHT22;26089;43.538;5.250;2023-05-10T05:05:09;13.90;99.90
16289;DHT22;26089;43.538;5.250;2023-05-10T05:07:36;13.90;99.90
16289;DHT22;26089;43.538;5.250;2023-05-10T05:10:06;13.80;99.90
16289;DHT22;26089;43.538;5.250;2023-05-10T05:12:34;13.90;99.90
16289;DHT22;26089;43.538;5.250;2023-05-10T05:15:01;13.80;99.90
16289;DHT22;26089;43.538;5.250;2023-05-10T05:17:30;13.80;99.90
16289;DHT22;26089;43.538;5.250;2023-05-10T05:19:57;13.90;99.90
16289;DHT22;26089;43.538;5.250;2023-05-10T05:22:24;13.90;99.90
16289;DHT22;26089;43.538;5.250;2023-05-10T05:24:53;14.00;99.90
16289;DHT22;26089;43.538;5.250;2023-05-10T05:27:21;14.00;99.90
16289;DHT22;26089;43.538;5.250;2023-05-10T05:29:49;14.00;99.90
16289;DHT22;26089;43.538;5.250;2023-05-10T05:32:16;14.00;99.90
16289;DHT22;26089;43.538;5.250;2023-05-10T05:34:44;14.00;99.90
16289;DHT22;26089;43.538;5.250;2023-05-10T05:37:13;14.10;99.90
16289;DHT22;26089;43.538;5.250;2023-05-10T05:39:40;14.10;99.90
16289;DHT22;26089;43.538;5.250;2023-05-10T05:42:08;14.10;99.90
16289;DHT22;26089;43.538;5.250;2023-05-10T05:44:36;14.10;99.90
16289;DHT22;26089;43.538;5.250;2023-05-10T05:47:03;14.10;99.90
16289;DHT22;26089;43.538;5.250;2023-05-10T05:49:31;14.10;99.90
16289;DHT22;26089;43.538;5.250;2023-05-10T05:51:59;14.20;99.90
16289;DHT22;26089;43.538;5.250;2023-05-10T05:54:27;14.30;99.90
16289;DHT22;26089;43.538;5.250;2023-05-10T05:56:54;14.30;99.90
16289;DHT22;26089;43.538;5.250;2023-05-10T05:59:22;14.40;99.90
16289;DHT22;26089;43.538;5.250;2023-05-10T06:01:50;14.50;99.90
16289;DHT22;26089;43.538;5.250;2023-05-10T06:04:18;14.50;99.90
16289;DHT22;26089;43.538;5.250;2023-05-10T06:06:45;14.60;99.90
16289;DHT22;26089;43.538;5.250;2023-05-10T06:09:12;14.70;99.90
16289;DHT22;26089;43.538;5.250;2023-05-10T06:11:39;14.80;99.90
16289;DHT22;26089;43.538;5.250;2023-05-10T06:14:06;15.00;99.90
16289;DHT22;26089;43.538;5.250;2023-05-10T06:16:33;15.20;99.90
16289;DHT22;26089;43.538;5.250;2023-05-10T06:19:01;15.10;99.90
16289;DHT22;26089;43.538;5.250;2023-05-10T06:21:29;15.40;99.90
16289;DHT22;26089;43.538;5.250;2023-05-10T06:23:55;16.40;99.90
16289;DHT22;26089;43.538;5.250;2023-05-10T06:26:22;17.40;99.90
16289;DHT22;26089;43.538;5.250;2023-05-10T06:28:50;18.30;99.90
16289;DHT22;26089;43.538;5.250;2023-05-10T06:31:17;18.50;99.90
16289;DHT22;26089;43.538;5.250;2023-05-10T06:33:44;18.40;99.90
16289;DHT22;26089;43.538;5.250;2023-05-10T06:36:12;18.40;99.90
16289;DHT22;26089;43.538;5.250;2023-05-10T06:38:40;18.60;99.90
16289;DHT22;26089;43.538;5.250;2023-05-10T06:41:07;18.60;99.90
16289;DHT22;26089;43.538;5.250;2023-05-10T06:43:34;19.30;99.90
16289;DHT22;26089;43.538;5.250;2023-05-10T06:46:01;19.70;99.90
16289;DHT22;26089;43.538;5.250;2023-05-10T06:48:28;19.70;99.90
16289;DHT22;26089;43.538;5.250;2023-05-10T06:50:55;19.70;99.90
16289;DHT22;26089;43.538;5.250;2023-05-10T06:53:23;19.20;99.90
16289;DHT22;26089;43.538;5.250;2023-05-10T06:55:50;19.30;99.90
16289;DHT22;26089;43.538;5.250;2023-05-10T06:58:17;20.30;99.90
16289;DHT22;26089;43.538;5.250;2023-05-10T07:00:44;20.40;99.90
16289;DHT22;26089;43.538;5.250;2023-05-10T07:03:12;20.40;99.90
16289;DHT22;26089;43.538;5.250;2023-05-10T07:05:39;19.80;99.90
16289;DHT22;26089;43.538;5.250;2023-05-10T07:08:06;19.70;99.90
16289;DHT22;26089;43.538;5.250;2023-05-10T07:10:35;20.10;99.90
16289;DHT22;26089;43.538;5.250;2023-05-10T07:13:02;20.50;99.90
16289;DHT22;26089;43.538;5.250;2023-05-10T07:15:29;20.40;99.90
16289;DHT22;26089;43.538;5.250;2023-05-10T07:17:56;19.60;99.90
16289;DHT22;26089;43.538;5.250;2023-05-10T07:20:23;19.30;99.90
16289;DHT22;26089;43.538;5.250;2023-05-10T07:22:50;20.00;99.90
16289;DHT22;26089;43.538;5.250;2023-05-10T07:25:17;20.30;99.90
16289;DHT22;26089;43.538;5.250;2023-05-10T07:27:45;20.70;99.90
16289;DHT22;26089;43.538;5.250;2023-05-10T07:30:14;20.40;99.90
16289;DHT22;26089;43.538;5.250;2023-05-10T07:32:41;20.40;99.90
16289;DHT22;26089;43.538;5.250;2023-05-10T07:35:08;20.60;99.90
16289;DHT22;26089;43.538;5.250;2023-05-10T07:37:35;20.20;99.90
16289;DHT22;26089;43.538;5.250;2023-05-10T07:40:03;20.10;99.90
16289;DHT22;26089;43.538;5.250;2023-05-10T07:42:30;20.20;99.90
16289;DHT22;26089;43.538;5.250;2023-05-10T07:44:58;20.60;99.90
16289;DHT22;26089;43.538;5.250;2023-05-10T07:47:25;20.90;99.90
16289;DHT22;26089;43.538;5.250;2023-05-10T07:49:52;21.20;99.90
16289;DHT22;26089;43.538;5.250;2023-05-10T07:52:19;21.00;99.90
16289;DHT22;26089;43.538;5.250;2023-05-10T07:54:46;21.30;99.90
16289;DHT22;26089;43.538;5.250;2023-05-10T07:57:13;21.10;99.90
16289;DHT22;26089;43.538;5.250;2023-05-10T07:59:43;20.60;99.90
16289;DHT22;26089;43.538;5.250;2023-05-10T08:02:12;20.80;99.90
16289;DHT22;26089;43.538;5.250;2023-05-10T08:04:39;20.40;99.90
16289;DHT22;26089;43.538;5.250;2023-05-10T08:07:06;20.60;99.90
16289;DHT22;26089;43.538;5.250;2023-05-10T08:09:33;20.00;99.90
16289;DHT22;26089;43.538;5.250;2023-05-10T08:12:00;20.20;99.90
16289;DHT22;26089;43.538;5.250;2023-05-10T08:14:28;20.10;99.90
16289;DHT22;26089;43.538;5.250;2023-05-10T08:16:55;20.30;99.90
16289;DHT22;26089;43.538;5.250;2023-05-10T08:19:23;20.20;99.90
16289;DHT22;26089;43.538;5.250;2023-05-10T08:21:50;19.80;99.90
16289;DHT22;26089;43.538;5.250;2023-05-10T08:24:18;20.10;99.90
16289;DHT22;26089;43.538;5.250;2023-05-10T08:26:45;20.10;99.90
16289;DHT22;26089;43.538;5.250;2023-05-10T08:29:13;20.00;99.90
16289;DHT22;26089;43.538;5.250;2023-05-10T08:31:40;20.40;99.90
16289;DHT22;26089;43.538;5.250;2023-05-10T08:34:07;20.10;99.90
16289;DHT22;26089;43.538;5.250;2023-05-10T08:36:35;20.10;99.90
16289;DHT22;26089;43.538;5.250;2023-05-10T08:39:03;20.10;99.90
16289;DHT22;26089;43.538;5.250;2023-05-10T08:41:30;20.50;99.90
16289;DHT22;26089;43.538;5.250;2023-05-10T08:43:59;20.40;99.90
16289;DHT22;26089;43.538;5.250;2023-05-10T08:46:31;20.10;99.90
16289;DHT22;26089;43.538;5.250;2023-05-10T08:49:01;20.50;99.90
16289;DHT22;26089;43.538;5.250;2023-05-10T08:51:33;20.20;99.90
16289;DHT22;26089;43.538;5.250;2023-05-10T08:54:03;20.30;99.90
16289;DHT22;26089;43.538;5.250;2023-05-10T08:56:31;20.50;99.90
16289;DHT22;26089;43.538;5.250;2023-05-10T08:58:58;20.90;99.90
16289;DHT22;26089;43.538;5.250;2023-05-10T09:01:25;20.90;99.90
16289;DHT22;26089;43.538;5.250;2023-05-10T09:03:53;20.90;99.90
16289;DHT22;26089;43.538;5.250;2023-05-10T09:06:20;20.80;99.90
16289;DHT22;26089;43.538;5.250;2023-05-10T09:08:48;20.40;99.90
16289;DHT22;26089;43.538;5.250;2023-05-10T09:11:16;20.60;99.90
16289;DHT22;26089;43.538;5.250;2023-05-10T09:13:44;20.70;99.90
16289;DHT22;26089;43.538;5.250;2023-05-10T09:16:12;20.90;99.90
16289;DHT22;26089;43.538;5.250;2023-05-10T09:18:39;21.20;99.90
16289;DHT22;26089;43.538;5.250;2023-05-10T09:21:06;21.50;99.90
16289;DHT22;26089;43.538;5.250;2023-05-10T09:23:33;21.70;99.90
16289;DHT22;26089;43.538;5.250;2023-05-10T09:26:03;21.30;99.90
16289;DHT22;26089;43.538;5.250;2023-05-10T09:28:33;21.60;99.90
16289;DHT22;26089;43.538;5.250;2023-05-10T09:31:00;21.60;99.90
16289;DHT22;26089;43.538;5.250;2023-05-10T09:33:27;22.00;99.90
16289;DHT22;26089;43.538;5.250;2023-05-10T09:35:54;22.10;99.90
16289;DHT22;26089;43.538;5.250;2023-05-10T09:38:21;22.20;99.90
16289;DHT22;26089;43.538;5.250;2023-05-10T09:40:52;22.10;99.90
16289;DHT22;26089;43.538;5.250;2023-05-10T09:43:20;22.10;99.90
16289;DHT22;26089;43.538;5.250;2023-05-10T09:45:49;21.60;99.90
16289;DHT22;26089;43.538;5.250;2023-05-10T09:48:16;21.50;99.90
16289;DHT22;26089;43.538;5.250;2023-05-10T09:50:43;21.50;99.90
16289;DHT22;26089;43.538;5.250;2023-05-10T09:53:14;21.90;99.90
16289;DHT22;26089;43.538;5.250;2023-05-10T09:55:43;22.20;99.90
16289;DHT22;26089;43.538;5.250;2023-05-10T09:58:12;22.00;99.90
16289;DHT22;26089;43.538;5.250;2023-05-10T10:00:41;22.20;99.90
16289;DHT22;26089;43.538;5.250;2023-05-10T10:03:14;22.00;99.90
16289;DHT22;26089;43.538;5.250;2023-05-10T10:05:43;21.60;99.90
16289;DHT22;26089;43.538;5.250;2023-05-10T10:08:10;21.80;99.90
16289;DHT22;26089;43.538;5.250;2023-05-10T10:10:38;22.20;99.90
16289;DHT22;26089;43.538;5.250;2023-05-10T10:13:07;22.40;99.90
16289;DHT22;26089;43.538;5.250;2023-05-10T10:15:34;22.70;99.90
16289;DHT22;26089;43.538;5.250;2023-05-10T10:18:02;22.30;99.90
16289;DHT22;26089;43.538;5.250;2023-05-10T10:20:31;22.50;99.90
16289;DHT22;26089;43.538;5.250;2023-05-10T10:22:58;22.20;99.90
16289;DHT22;26089;43.538;5.250;2023-05-10T10:25:25;22.40;99.90
16289;DHT22;26089;43.538;5.250;2023-05-10T10:28:06;22.70;99.90
16289;DHT22;26089;43.538;5.250;2023-05-10T10:30:41;22.90;99.90
16289;DHT22;26089;43.538;5.250;2023-05-10T10:33:36;22.80;99.90
16289;DHT22;26089;43.538;5.250;2023-05-10T10:36:07;22.70;99.90
16289;DHT22;26089;43.538;5.250;2023-05-10T10:38:38;22.80;99.90
16289;DHT22;26089;43.538;5.250;2023-05-10T10:41:29;22.30;99.90
16289;DHT22;26089;43.538;5.250;2023-05-10T10:47:23;22.20;99.90
16289;DHT22;26089;43.538;5.250;2023-05-10T10:50:02;22.50;99.90
16289;DHT22;26089;43.538;5.250;2023-05-10T10:52:35;22.60;99.90
16289;DHT22;26089;43.538;5.250;2023-05-10T10:55:05;22.70;99.90
16289;DHT22;26089;43.538;5.250;2023-05-10T10:57:47;23.10;99.90
16289;DHT22;26089;43.538;5.250;2023-05-10T11:00:27;22.70;99.90
16289;DHT22;26089;43.538;5.250;2023-05-10T11:02:57;22.60;99.90
16289;DHT22;26089;43.538;5.250;2023-05-10T11:08:15;23.10;99.90
16289;DHT22;26089;43.538;5.250;2023-05-10T11:11:01;23.00;99.90
16289;DHT22;26089;43.538;5.250;2023-05-10T11:13:29;22.80;99.90
16289;DHT22;26089;43.538;5.250;2023-05-10T11:15:57;22.90;99.90
16289;DHT22;26089;43.538;5.250;2023-05-10T11:18:26;22.50;99.90
16289;DHT22;26089;43.538;5.250;2023-05-10T11:20:57;22.20;99.90
16289;DHT22;26089;43.538;5.250;2023-05-10T11:23:30;22.60;99.90
16289;DHT22;26089;43.538;5.250;2023-05-10T11:25:58;22.90;99.90
16289;DHT22;26089;43.538;5.250;2023-05-10T11:28:26;23.10;99.90
16289;DHT22;26089;43.538;5.250;2023-05-10T11:30:54;23.10;99.90
16289;DHT22;26089;43.538;5.250;2023-05-10T11:33:21;23.50;99.90
16289;DHT22;26089;43.538;5.250;2023-05-10T11:35:48;24.20;99.90
16289;DHT22;26089;43.538;5.250;2023-05-10T11:38:15;23.90;99.90
16289;DHT22;26089;43.538;5.250;2023-05-10T11:40:44;23.70;99.90
16289;DHT22;26089;43.538;5.250;2023-05-10T11:43:11;24.20;99.90
16289;DHT22;26089;43.538;5.250;2023-05-10T11:45:39;24.10;99.90
16289;DHT22;26089;43.538;5.250;2023-05-10T11:48:06;23.80;99.90
16289;DHT22;26089;43.538;5.250;2023-05-10T11:50:34;23.50;99.90
16289;DHT22;26089;43.538;5.250;2023-05-10T11:53:01;23.40;99.90
16289;DHT22;26089;43.538;5.250;2023-05-10T11:55:28;23.60;99.90
16289;DHT22;26089;43.538;5.250;2023-05-10T11:58:01;24.50;99.90
16289;DHT22;26089;43.538;5.250;2023-05-10T12:00:29;24.40;99.90
16289;DHT22;26089;43.538;5.250;2023-05-10T12:02:57;23.90;99.90
16289;DHT22;26089;43.538;5.250;2023-05-10T12:05:24;23.80;99.90
16289;DHT22;26089;43.538;5.250;2023-05-10T12:07:51;23.70;99.90
16289;DHT22;26089;43.538;5.250;2023-05-10T12:10:25;24.10;99.90
16289;DHT22;26089;43.538;5.250;2023-05-10T12:12:53;24.40;99.90
16289;DHT22;26089;43.538;5.250;2023-05-10T12:15:22;24.70;99.90
16289;DHT22;26089;43.538;5.250;2023-05-10T12:17:50;24.30;99.30
16289;DHT22;26089;43.538;5.250;2023-05-10T12:20:18;23.80;99.90
16289;DHT22;26089;43.538;5.250;2023-05-10T12:22:48;23.10;99.90
16289;DHT22;26089;43.538;5.250;2023-05-10T12:25:15;22.90;99.70
16289;DHT22;26089;43.538;5.250;2023-05-10T12:27:48;22.90;99.90
16289;DHT22;26089;43.538;5.250;2023-05-10T12:30:21;23.40;99.10
16289;DHT22;26089;43.538;5.250;2023-05-10T12:32:48;23.40;99.10
16289;DHT22;26089;43.538;5.250;2023-05-10T12:35:16;23.70;99.30
16289;DHT22;26089;43.538;5.250;2023-05-10T12:37:44;23.90;99.30
16289;DHT22;26089;43.538;5.250;2023-05-10T12:40:11;23.90;99.40
16289;DHT22;26089;43.538;5.250;2023-05-10T12:42:39;24.00;97.50
16289;DHT22;26089;43.538;5.250;2023-05-10T12:45:07;23.90;98.40
16289;DHT22;26089;43.538;5.250;2023-05-10T12:47:36;24.60;98.70
16289;DHT22;26089;43.538;5.250;2023-05-10T12:50:04;24.70;97.60
16289;DHT22;26089;43.538;5.250;2023-05-10T12:52:32;24.20;97.60
16289;DHT22;26089;43.538;5.250;2023-05-10T12:54:59;24.00;97.80
16289;DHT22;26089;43.538;5.250;2023-05-10T12:57:26;24.00;98.10
16289;DHT22;26089;43.538;5.250;2023-05-10T12:59:54;23.80;98.00
16289;DHT22;26089;43.538;5.250;2023-05-10T13:02:21;23.80;96.80
16289;DHT22;26089;43.538;5.250;2023-05-10T13:04:50;23.80;97.30
16289;DHT22;26089;43.538;5.250;2023-05-10T13:07:17;23.90;97.60
16289;DHT22;26089;43.538;5.250;2023-05-10T13:09:44;24.00;98.20
16289;DHT22;26089;43.538;5.250;2023-05-10T13:12:11;23.80;96.90
16289;DHT22;26089;43.538;5.250;2023-05-10T13:14:38;24.00;96.80
16289;DHT22;26089;43.538;5.250;2023-05-10T13:17:06;24.30;96.50
16289;DHT22;26089;43.538;5.250;2023-05-10T13:19:33;24.40;96.60
16289;DHT22;26089;43.538;5.250;2023-05-10T13:22:02;24.40;96.40
16289;DHT22;26089;43.538;5.250;2023-05-10T13:24:29;24.30;95.30
16289;DHT22;26089;43.538;5.250;2023-05-10T13:26:56;24.00;95.80
16289;DHT22;26089;43.538;5.250;2023-05-10T13:29:23;24.00;95.40
16289;DHT22;26089;43.538;5.250;2023-05-10T13:31:50;23.80;96.00
16289;DHT22;26089;43.538;5.250;2023-05-10T13:34:17;23.60;95.80
16289;DHT22;26089;43.538;5.250;2023-05-10T13:36:46;23.60;96.30
16289;DHT22;26089;43.538;5.250;2023-05-10T13:39:14;24.20;96.00
16289;DHT22;26089;43.538;5.250;2023-05-10T13:41:41;24.20;95.80
16289;DHT22;26089;43.538;5.250;2023-05-10T13:44:08;24.10;95.50
16289;DHT22;26089;43.538;5.250;2023-05-10T13:46:36;24.00;95.90
16289;DHT22;26089;43.538;5.250;2023-05-10T13:49:04;23.70;95.60
16289;DHT22;26089;43.538;5.250;2023-05-10T13:51:31;23.50;95.20
16289;DHT22;26089;43.538;5.250;2023-05-10T13:53:58;23.40;95.60
16289;DHT22;26089;43.538;5.250;2023-05-10T13:56:26;23.30;96.10
16289;DHT22;26089;43.538;5.250;2023-05-10T13:58:53;23.40;95.90
16289;DHT22;26089;43.538;5.250;2023-05-10T14:01:20;23.50;95.60
16289;DHT22;26089;43.538;5.250;2023-05-10T14:03:48;23.70;95.70
16289;DHT22;26089;43.538;5.250;2023-05-10T14:06:15;23.70;96.20
16289;DHT22;26089;43.538;5.250;2023-05-10T14:08:42;23.50;95.90
16289;DHT22;26089;43.538;5.250;2023-05-10T14:11:09;23.50;96.00
16289;DHT22;26089;43.538;5.250;2023-05-10T14:13:37;23.70;96.70
16289;DHT22;26089;43.538;5.250;2023-05-10T14:16:05;23.80;95.40
16289;DHT22;26089;43.538;5.250;2023-05-10T14:18:32;23.60;95.80
16289;DHT22;26089;43.538;5.250;2023-05-10T14:20:59;23.70;95.30
16289;DHT22;26089;43.538;5.250;2023-05-10T14:23:26;23.60;95.60
16289;DHT22;26089;43.538;5.250;2023-05-10T14:25:54;22.90;96.00
16289;DHT22;26089;43.538;5.250;2023-05-10T14:28:21;22.90;96.70
16289;DHT22;26089;43.538;5.250;2023-05-10T14:30:50;23.20;96.60
16289;DHT22;26089;43.538;5.250;2023-05-10T14:33:17;23.20;95.80
16289;DHT22;26089;43.538;5.250;2023-05-10T14:35:44;23.30;96.40
16289;DHT22;26089;43.538;5.250;2023-05-10T14:38:12;23.40;95.60
16289;DHT22;26089;43.538;5.250;2023-05-10T14:40:39;23.30;95.50
16289;DHT22;26089;43.538;5.250;2023-05-10T14:43:06;23.50;95.70
16289;DHT22;26089;43.538;5.250;2023-05-10T14:45:33;23.50;95.60
16289;DHT22;26089;43.538;5.250;2023-05-10T14:48:01;23.60;95.40
16289;DHT22;26089;43.538;5.250;2023-05-10T14:50:30;23.70;93.40
16289;DHT22;26089;43.538;5.250;2023-05-10T14:52:57;23.30;93.60
16289;DHT22;26089;43.538;5.250;2023-05-10T14:55:24;23.00;93.80
16289;DHT22;26089;43.538;5.250;2023-05-10T14:57:51;22.60;94.90
16289;DHT22;26089;43.538;5.250;2023-05-10T15:00:19;22.80;95.20
16289;DHT22;26089;43.538;5.250;2023-05-10T15:02:46;22.80;95.10
16289;DHT22;26089;43.538;5.250;2023-05-10T15:05:15;22.60;94.90
16289;DHT22;26089;43.538;5.250;2023-05-10T15:07:42;22.50;95.50
16289;DHT22;26089;43.538;5.250;2023-05-10T15:10:09;22.40;95.10
16289;DHT22;26089;43.538;5.250;2023-05-10T15:12:37;22.50;94.70
16289;DHT22;26089;43.538;5.250;2023-05-10T15:15:05;22.50;94.50
16289;DHT22;26089;43.538;5.250;2023-05-10T15:17:32;22.50;95.10
16289;DHT22;26089;43.538;5.250;2023-05-10T15:19:59;22.70;94.80
16289;DHT22;26089;43.538;5.250;2023-05-10T15:22:29;22.70;95.00
16289;DHT22;26089;43.538;5.250;2023-05-10T15:24:57;22.70;94.40
16289;DHT22;26089;43.538;5.250;2023-05-10T15:27:24;22.70;95.70
16289;DHT22;26089;43.538;5.250;2023-05-10T15:29:51;22.90;94.60
16289;DHT22;26089;43.538;5.250;2023-05-10T15:32:18;23.00;94.50
16289;DHT22;26089;43.538;5.250;2023-05-10T15:34:45;22.90;93.90
16289;DHT22;26089;43.538;5.250;2023-05-10T15:37:12;23.00;94.10
16289;DHT22;26089;43.538;5.250;2023-05-10T15:39:40;22.90;93.80
16289;DHT22;26089;43.538;5.250;2023-05-10T15:42:07;22.90;94.40
16289;DHT22;26089;43.538;5.250;2023-05-10T15:44:34;22.70;93.90
16289;DHT22;26089;43.538;5.250;2023-05-10T15:47:03;22.80;94.00